Time;durP1;ratioP1;P1;durP2;ratioP2;P2;SDS_P1;SDS_P2;PMS_P1;PMS_P2;Temp;Humidity;BMP_temperature;BMP_pressure;BME280_temperature;BME280_humidity;BME280_pressure;Samples;Min_cycle;Max_cycle;Signal;HPM_P1;HPM_P2
2023/04/05 00:01:07;;;;;;;;;32.67;28.33;;;;;9.46;72.30;101624.59;4885919;29;30519;-85
2023/04/05 00:03:33;;;;;;;;;32.00;27.67;;;;;9.46;73.03;101623.72;4903052;29;28860;-85
2023/04/05 00:05:59;;;;;;;;;31.67;31.67;;;;;9.35;73.11;101616.28;4886134;29;28532;-86
2023/04/05 00:08:25;;;;;;;;;26.00;23.67;;;;;9.36;73.56;101626.03;4885137;29;28649;-86
2023/04/05 00:10:52;;;;;;;;;29.33;27.67;;;;;9.33;74.09;101625.97;4900647;29;30013;-86
2023/04/05 00:13:18;;;;;;;;;42.00;32.00;;;;;9.27;74.58;101622.16;4902242;29;28606;-86
2023/04/05 00:15:43;;;;;;;;;34.33;30.33;;;;;9.27;74.86;101625.75;4921776;29;28408;-86
2023/04/05 00:18:20;;;;;;;;;32.33;30.00;;;;;9.29;75.39;101629.38;4922816;29;28489;-86
2023/04/05 00:20:50;;;;;;;;;28.00;28.00;;;;;9.36;75.37;101627.81;4919781;29;30759;-85
2023/04/05 00:23:19;;;;;;;;;30.67;30.67;;;;;9.16;75.97;101616.50;4922125;29;28681;-85
2023/04/05 00:25:45;;;;;;;;;28.67;26.33;;;;;9.18;76.12;101617.47;4905197;29;28928;-85
2023/04/05 00:28:12;;;;;;;;;34.33;30.00;;;;;9.16;76.72;101608.56;4922077;29;28491;-85
2023/04/05 00:30:37;;;;;;;;;33.33;31.00;;;;;9.11;76.77;101610.13;4905063;29;29786;-86
2023/04/05 00:33:03;;;;;;;;;30.67;28.00;;;;;9.08;77.12;101615.34;4921532;29;27899;-86
2023/04/05 00:35:28;;;;;;;;;33.67;29.33;;;;;9.04;77.14;101611.69;4904006;29;28112;-85
2023/04/05 00:37:55;;;;;;;;;30.33;27.67;;;;;9.05;77.23;101615.22;4904726;29;28503;-85
2023/04/05 00:40:20;;;;;;;;;34.00;32.67;;;;;9.02;77.66;101616.94;4902263;29;29818;-86
2023/04/05 00:42:45;;;;;;;;;30.00;29.00;;;;;8.99;77.43;101611.53;4904123;29;28697;-86
2023/04/05 00:45:12;;;;;;;;;30.67;28.00;;;;;9.05;77.75;101613.50;4903911;29;28490;-86
2023/04/05 00:47:39;;;;;;;;;32.33;30.67;;;;;8.90;78.18;101595.28;4890298;29;28460;-86
2023/04/05 00:50:05;;;;;;;;;30.33;30.33;;;;;8.96;78.43;101611.41;4907410;29;30281;-86
2023/04/05 00:52:32;;;;;;;;;31.33;29.33;;;;;8.92;78.60;101609.50;4923911;29;27946;-85
2023/04/05 00:54:58;;;;;;;;;34.33;32.33;;;;;8.90;78.42;101603.25;4904472;29;27876;-86
2023/04/05 00:57:25;;;;;;;;;32.33;31.33;;;;;8.90;79.00;101605.91;4921565;29;28509;-85
2023/04/05 00:59:50;;;;;;;;;27.00;27.00;;;;;8.84;78.88;101605.69;4904414;29;30603;-84
2023/04/05 01:02:30;;;;;;;;;31.33;31.33;;;;;8.94;79.26;101606.91;4904208;29;28538;-86
2023/04/05 01:05:03;;;;;;;;;30.67;27.00;;;;;8.89;79.22;101597.91;4920047;29;27963;-86
2023/04/05 01:08:10;;;;;;;;;28.00;27.33;;;;;8.93;78.93;101595.41;4905132;29;28632;-85
2023/04/05 01:10:41;;;;;;;;;28.67;27.33;;;;;8.79;79.10;101592.28;4811743;29;30144;-85
2023/04/05 01:13:07;;;;;;;;;31.33;29.00;;;;;8.71;79.01;101592.88;4811582;29;30027;-84
2023/04/05 01:15:33;;;;;;;;;34.67;34.00;;;;;8.67;79.12;101580.34;4825206;29;27816;-85
2023/04/05 01:18:00;;;;;;;;;32.67;30.33;;;;;8.67;79.04;101583.00;4810713;29;28459;-84
2023/04/05 01:20:32;;;;;;;;;28.67;27.67;;;;;8.67;79.30;101572.38;4810255;29;30026;-85
2023/04/05 01:23:04;;;;;;;;;32.67;28.33;;;;;8.61;79.52;101576.63;4810546;29;29137;-85
2023/04/05 01:26:06;;;;;;;;;33.00;28.33;;;;;8.77;78.97;101580.72;4812295;29;28456;-85
2023/04/05 01:28:33;;;;;;;;;28.33;26.67;;;;;8.57;78.74;101574.69;4826769;29;28636;-85
2023/04/05 01:31:25;;;;;;;;;36.67;32.33;;;;;8.66;78.67;101568.81;4811297;29;29890;-84
2023/04/05 01:34:00;;;;;;;;;31.00;28.67;;;;;8.59;79.02;101569.47;4809653;29;28813;-85
2023/04/05 01:36:32;;;;;;;;;31.00;28.33;;;;;8.58;78.66;101565.91;4824093;29;27938;-85
2023/04/05 01:39:01;;;;;;;;;35.33;28.33;;;;;8.56;78.85;101567.63;4824335;29;28865;-85
2023/04/05 01:41:26;;;;;;;;;31.00;27.00;;;;;8.46;79.10;101553.94;4826476;29;28582;-86
2023/04/05 01:43:52;;;;;;;;;30.00;27.67;;;;;8.40;79.27;101550.22;4846287;28;28497;-86
2023/04/05 01:46:17;;;;;;;;;33.67;25.33;;;;;8.40;78.81;101555.53;4904640;29;27994;-85
2023/04/05 01:48:42;;;;;;;;;32.67;28.33;;;;;8.41;78.69;101557.34;4920830;29;28553;-84
2023/04/05 01:51:08;;;;;;;;;29.67;25.00;;;;;8.40;78.39;101563.47;4903607;29;29659;-85
2023/04/05 01:53:33;;;;;;;;;32.33;26.33;;;;;8.39;78.37;101558.09;4904915;29;29045;-86
2023/04/05 01:56:00;;;;;;;;;26.33;24.67;;;;;8.43;78.28;101554.75;4905452;29;28394;-85
2023/04/05 01:58:26;;;;;;;;;29.67;25.00;;;;;8.41;78.46;101556.44;4921313;29;28538;-84
2023/04/05 02:00:55;;;;;;;;;30.00;25.33;;;;;8.51;77.76;101563.88;4904162;29;31328;-84
2023/04/05 02:03:24;;;;;;;;;28.33;26.00;;;;;8.47;77.91;101553.13;4921744;29;27859;-84
2023/04/05 02:05:50;;;;;;;;;25.67;25.67;;;;;8.34;78.05;101544.69;4921417;29;28421;-85
2023/04/05 02:08:16;;;;;;;;;28.00;28.00;;;;;8.34;77.99;101550.00;4920250;29;28575;-85
2023/04/05 02:10:41;;;;;;;;;34.67;28.33;;;;;8.33;78.22;101548.19;4899287;29;29780;-85
2023/04/05 02:13:07;;;;;;;;;34.67;26.00;;;;;8.32;78.09;101545.47;4903568;29;28691;-85
2023/04/05 02:15:32;;;;;;;;;25.33;25.00;;;;;8.30;78.23;101547.16;4920312;29;27867;-86
2023/04/05 02:18:00;;;;;;;;;30.00;27.33;;;;;8.32;79.04;101540.16;4918499;29;27981;-85
2023/04/05 02:20:26;;;;;;;;;22.67;21.33;;;;;8.25;78.49;101524.91;4917792;29;31109;-85
2023/04/05 02:22:52;;;;;;;;;35.33;26.67;;;;;8.21;78.52;101532.72;4903657;29;28357;-86
2023/04/05 02:25:18;;;;;;;;;29.33;26.33;;;;;8.14;78.60;101536.03;4918535;29;28903;-85
2023/04/05 02:27:43;;;;;;;;;28.33;26.33;;;;;8.13;78.64;101528.91;4902480;29;28367;-86
2023/04/05 02:30:09;;;;;;;;;22.67;22.67;;;;;8.11;79.04;101519.09;4905349;29;29947;-85
2023/04/05 02:32:35;;;;;;;;;24.33;22.67;;;;;8.12;79.11;101532.41;4922197;29;29561;-85
2023/04/05 02:35:04;;;;;;;;;27.33;25.00;;;;;8.22;79.38;101528.34;4922680;29;27804;-84
2023/04/05 02:37:29;;;;;;;;;25.00;25.00;;;;;8.10;79.35;101527.88;4925357;29;28414;-85
2023/04/05 02:39:55;;;;;;;;;24.33;22.00;;;;;8.05;79.21;101533.03;4918017;29;28462;-86
2023/04/05 02:42:20;;;;;;;;;27.00;24.67;;;;;8.01;79.39;101524.06;4902557;29;28813;-85
2023/04/05 02:44:45;;;;;;;;;23.33;19.67;;;;;7.99;79.75;101514.25;4886439;29;28523;-85
2023/04/05 02:47:10;;;;;;;;;25.67;23.67;;;;;7.96;79.60;101519.44;4903668;29;28437;-85
2023/04/05 02:49:36;;;;;;;;;25.00;24.67;;;;;7.96;79.98;101515.03;4904340;29;30739;-86
2023/04/05 02:52:03;;;;;;;;;27.67;25.67;;;;;8.02;80.07;101503.78;4886731;29;28884;-86
2023/04/05 02:54:28;;;;;;;;;29.33;25.33;;;;;7.87;80.09;101511.16;4902236;29;27951;-85
2023/04/05 02:56:56;;;;;;;;;31.67;28.00;;;;;7.92;80.06;101521.06;4904981;29;28494;-85
2023/04/05 02:59:21;;;;;;;;;30.67;27.33;;;;;7.87;80.47;101508.50;4903612;29;28315;-85
2023/04/05 03:01:47;;;;;;;;;28.00;19.67;;;;;7.91;80.04;101507.78;4902837;29;28837;-86
2023/04/05 03:04:12;;;;;;;;;26.67;24.33;;;;;7.92;79.99;101514.88;4905187;29;27912;-85
2023/04/05 03:06:37;;;;;;;;;26.33;24.33;;;;;7.93;80.23;101514.03;4904646;29;27892;-86
2023/04/05 03:09:03;;;;;;;;;32.33;28.33;;;;;7.91;80.38;101507.78;4901960;29;30134;-85
2023/04/05 03:12:11;;;;;;;;;30.00;25.67;;;;;8.08;79.72;101511.03;4906098;29;28314;-85
2023/04/05 03:14:37;;;;;;;;;29.67;27.33;;;;;7.90;80.25;101503.34;4904422;29;27876;-85
2023/04/05 03:17:03;;;;;;;;;29.33;24.67;;;;;7.92;80.54;101513.13;4901833;29;28832;-85
2023/04/05 03:19:28;;;;;;;;;25.00;25.00;;;;;7.92;80.52;101512.25;4887412;29;30219;-85
2023/04/05 03:21:54;;;;;;;;;26.67;22.67;;;;;7.87;81.20;101503.22;4887220;29;28729;-86
2023/04/05 03:24:20;;;;;;;;;32.67;32.00;;;;;7.81;81.28;101507.41;4902131;29;28476;-85
2023/04/05 03:26:46;;;;;;;;;31.00;24.33;;;;;7.85;81.60;101511.09;4901639;29;28573;-84
2023/04/05 03:29:12;;;;;;;;;31.33;29.67;;;;;7.74;82.00;101502.75;4886719;29;30712;-85
2023/04/05 03:31:37;;;;;;;;;32.33;26.67;;;;;7.75;83.05;101514.22;4903214;29;28387;-85
2023/04/05 03:34:02;;;;;;;;;26.33;25.00;;;;;7.74;82.82;101518.63;4885935;29;28437;-85
2023/04/05 03:36:29;;;;;;;;;31.00;28.67;;;;;7.68;83.21;101513.09;4906136;29;28430;-85
2023/04/05 03:38:57;;;;;;;;;33.00;27.33;;;;;7.73;83.83;101524.75;4904279;29;30137;-84
2023/04/05 03:41:23;;;;;;;;;28.00;25.33;;;;;7.70;83.90;101521.13;4903076;29;28671;-84
2023/04/05 03:43:48;;;;;;;;;30.00;26.67;;;;;7.70;83.94;101516.72;4886003;29;27849;-85
2023/04/05 03:46:13;;;;;;;;;29.33;27.67;;;;;7.71;84.27;101523.78;4901910;29;28490;-85
2023/04/05 03:48:39;;;;;;;;;28.33;28.33;;;;;7.70;84.46;101524.66;4901869;29;30654;-85
2023/04/05 03:51:05;;;;;;;;;28.00;25.00;;;;;7.71;85.02;101533.50;4885429;29;28607;-85
2023/04/05 03:53:30;;;;;;;;;27.67;25.00;;;;;7.66;86.08;101525.38;4902061;29;27808;-85
2023/04/05 03:55:55;;;;;;;;;35.67;29.67;;;;;7.64;85.48;101526.19;4886372;29;28499;-85
2023/04/05 03:58:24;;;;;;;;;26.67;25.00;;;;;7.68;86.31;101521.06;4902144;29;29845;-86
2023/04/05 04:00:49;;;;;;;;;27.00;24.00;;;;;7.62;86.70;101528.75;4887026;29;28863;-85
2023/04/05 04:03:14;;;;;;;;;29.33;26.33;;;;;7.60;87.03;101525.16;4902831;29;28426;-86
2023/04/05 04:05:47;;;;;;;;;30.00;29.00;;;;;7.59;87.69;101533.91;4885894;29;27909;-85
2023/04/05 04:08:12;;;;;;;;;34.33;28.33;;;;;7.60;87.69;101526.03;4902132;29;29927;-85
2023/04/05 04:10:37;;;;;;;;;35.00;30.67;;;;;7.59;87.86;101512.75;4903469;29;28471;-85
2023/04/05 04:13:03;;;;;;;;;25.00;22.00;;;;;7.55;87.58;101508.19;4887273;29;28727;-84
2023/04/05 04:15:30;;;;;;;;;32.33;32.00;;;;;7.60;88.09;101514.56;4886992;29;28513;-85
2023/04/05 04:17:55;;;;;;;;;28.00;25.33;;;;;7.51;87.54;101519.47;4888703;29;31495;-85
2023/04/05 04:20:21;;;;;;;;;30.00;28.00;;;;;7.49;87.45;101522.06;4905462;29;28695;-86
2023/04/05 04:22:47;;;;;;;;;27.67;24.00;;;;;7.52;87.02;101522.19;4906316;29;28517;-85
2023/04/05 04:25:13;;;;;;;;;31.00;29.33;;;;;7.52;86.57;101522.19;4907273;29;28550;-85
2023/04/05 04:27:41;;;;;;;;;29.67;27.67;;;;;7.55;86.41;101517.03;4907024;29;30004;-85
2023/04/05 04:30:12;;;;;;;;;27.67;27.67;;;;;7.55;86.69;101527.63;4906959;29;29000;-84
2023/04/05 04:32:54;;;;;;;;;30.67;27.00;;;;;7.41;86.88;101520.88;4937235;28;28398;-84
2023/04/05 04:35:28;;;;;;;;;29.00;28.67;;;;;7.43;88.10;101515.63;4920760;29;28419;-84
2023/04/05 04:38:04;;;;;;;;;28.00;28.00;;;;;7.24;87.74;101514.91;4923358;29;28466;-85
2023/04/05 04:40:46;;;;;;;;;26.67;25.00;;;;;7.35;87.45;101513.63;4922040;29;27786;-85
2023/04/05 04:43:16;;;;;;;;;32.67;27.67;;;;;7.27;87.53;101508.84;4924284;29;28509;-85
2023/04/05 04:45:53;;;;;;;;;28.33;24.00;;;;;7.29;87.37;101502.78;4905655;29;28511;-85
2023/04/05 04:48:19;;;;;;;;;30.67;30.67;;;;;7.12;87.99;101495.91;4921448;29;29258;-85
2023/04/05 04:50:45;;;;;;;;;22.33;22.00;;;;;7.22;88.09;101504.25;4919052;29;28468;-85
2023/04/05 04:53:17;;;;;;;;;25.67;23.67;;;;;7.14;88.26;101496.88;4920696;29;27882;-85
2023/04/05 04:55:43;;;;;;;;;31.33;31.33;;;;;7.16;88.09;101506.66;4904346;29;27968;-84
2023/04/05 04:58:10;;;;;;;;;28.33;28.00;;;;;7.21;88.75;101504.19;4903647;29;30263;-85
2023/04/05 05:00:43;;;;;;;;;29.33;27.33;;;;;7.27;88.58;101498.25;4903801;29;29307;-84
2023/04/05 05:03:10;;;;;;;;;35.33;29.33;;;;;7.16;88.89;101506.66;4920985;29;28461;-85
2023/04/05 05:05:41;;;;;;;;;32.33;32.33;;;;;7.15;88.82;101498.66;4920641;29;28408;-85
2023/04/05 05:08:06;;;;;;;;;34.67;31.00;;;;;7.16;88.83;101500.47;4906261;29;29911;-85
2023/04/05 05:10:31;;;;;;;;;31.33;29.67;;;;;7.09;88.73;101490.47;4904493;29;28743;-85
2023/04/05 05:12:57;;;;;;;;;32.33;31.00;;;;;7.13;89.52;101495.06;4923080;29;28942;-85
2023/04/05 05:15:22;;;;;;;;;35.33;32.67;;;;;7.09;89.02;101499.34;4905861;29;28538;-84
2023/04/05 05:17:51;;;;;;;;;33.33;29.33;;;;;7.06;89.03;101493.03;4906787;29;30232;-84
2023/04/05 05:20:17;;;;;;;;;30.33;28.33;;;;;7.13;88.68;101502.97;4905284;29;29044;-85
2023/04/05 05:22:42;;;;;;;;;31.33;31.33;;;;;7.12;89.09;101498.56;4904547;29;28853;-84
2023/04/05 05:25:08;;;;;;;;;33.00;28.67;;;;;7.18;89.14;101501.44;4904877;29;27863;-85
2023/04/05 05:27:34;;;;;;;;;26.00;25.00;;;;;7.16;89.02;101500.47;4903696;29;30123;-85
2023/04/05 05:30:00;;;;;;;;;36.00;29.00;;;;;7.18;88.88;101498.78;4921747;29;27859;-85
2023/04/05 05:32:25;;;;;;;;;28.67;27.00;;;;;7.16;88.81;101487.25;4905319;29;27891;-86
2023/04/05 05:34:51;;;;;;;;;29.00;27.67;;;;;7.16;88.90;101485.50;4903636;29;28530;-85
2023/04/05 05:37:17;;;;;;;;;35.00;34.33;;;;;7.25;88.94;101500.84;4920409;29;29256;-85
2023/04/05 05:39:45;;;;;;;;;32.67;27.67;;;;;7.17;88.53;101489.03;4904589;29;28994;-85
2023/04/05 05:42:12;;;;;;;;;34.33;29.00;;;;;7.32;88.55;101505.53;4906711;29;27935;-85
2023/04/05 05:44:38;;;;;;;;;30.67;30.00;;;;;7.18;88.29;101496.16;4926508;28;28394;-86
2023/04/05 05:47:05;;;;;;;;;32.67;31.00;;;;;7.36;88.37;101503.91;4907028;29;29859;-86
2023/04/05 05:49:31;;;;;;;;;33.33;28.33;;;;;7.27;88.43;101499.19;4905381;29;28721;-86
2023/04/05 05:51:56;;;;;;;;;30.00;25.67;;;;;7.31;89.62;101493.16;4905327;29;27870;-86
2023/04/05 05:54:24;;;;;;;;;28.00;27.00;;;;;7.43;89.82;101508.59;4920876;29;28771;-87
2023/04/05 05:56:50;;;;;;;;;20.00;20.00;;;;;7.49;88.95;101506.19;4904457;29;29830;-87
2023/04/05 05:59:15;;;;;;;;;31.67;30.00;;;;;7.47;89.17;101504.31;4919739;29;28928;-86
2023/04/05 06:01:41;;;;;;;;;32.33;29.33;;;;;7.48;88.71;101499.09;4920423;28;28363;-86
2023/04/05 06:04:07;;;;;;;;;37.00;32.67;;;;;7.42;88.49;101483.00;4920321;29;28287;-86
2023/04/05 06:06:46;;;;;;;;;27.67;25.00;;;;;7.52;88.32;101486.91;4907683;29;30214;-86
2023/04/05 06:09:16;;;;;;;;;32.33;30.33;;;;;7.65;87.94;101486.50;4922797;29;28565;-87
2023/04/05 06:11:54;;;;;;;;;32.00;31.33;;;;;7.51;88.08;101471.84;4907413;29;28293;-86
2023/04/05 06:14:20;;;;;;;;;41.67;35.33;;;;;7.53;88.38;101484.28;4893058;29;28411;-85
2023/04/05 06:16:48;;;;;;;;;33.33;30.33;;;;;7.62;87.97;101491.69;4922085;29;29796;-86
2023/04/05 06:19:14;;;;;;;;;36.67;32.67;;;;;7.50;87.47;101459.47;4906161;29;28874;-86
2023/04/05 06:21:39;;;;;;;;;38.00;31.67;;;;;7.75;87.78;101501.88;4923456;29;28523;-84
2023/04/05 06:24:23;;;;;;;;;32.67;29.33;;;;;7.86;88.02;101520.84;4923341;29;27911;-87
2023/04/05 06:26:51;;;;;;;;;37.00;32.00;;;;;7.70;87.95;101514.06;4919427;29;28216;-86
2023/04/05 06:29:19;;;;;;;;;35.67;33.33;;;;;7.34;90.70;101501.22;4889559;29;29199;-86
2023/04/05 06:31:47;;;;;;;;;29.33;29.00;;;;;7.29;91.55;101518.66;4921098;29;28446;-86
2023/04/05 06:34:12;;;;;;;;;34.67;27.67;;;;;7.27;90.44;101519.41;4906302;29;27935;-84
2023/04/05 06:36:55;;;;;;;;;37.00;36.00;;;;;7.34;90.63;101514.44;4908751;29;29839;-85
2023/04/05 06:39:31;;;;;;;;;35.25;31.50;;;;;7.24;89.73;101487.56;4908749;29;28732;-86
2023/04/05 06:42:19;;;;;;;;;40.50;36.00;;;;;7.69;89.20;101514.91;4926320;29;27846;-84
2023/04/05 06:44:45;;;;;;;;;37.50;35.00;;;;;7.58;88.34;101495.97;4886279;29;28507;-83
2023/04/05 06:47:11;;;;;;;;;39.25;35.25;;;;;7.62;88.24;101475.81;4888448;29;29684;-86
2023/04/05 06:49:39;;;;;;;;;43.00;33.50;;;;;7.68;87.13;101473.41;4888227;29;28592;-86
2023/04/05 06:52:07;;;;;;;;;32.75;29.00;;;;;8.02;87.13;101515.28;4888190;29;27818;-86
2023/04/05 06:54:37;;;;;;;;;32.67;30.33;;;;;7.93;86.20;101461.94;4889197;29;28531;-85
2023/04/05 06:57:05;;;;;;;;;32.67;30.67;;;;;7.98;85.75;101464.78;4921715;29;28478;-86
2023/04/05 06:59:38;;;;;;;;;32.67;28.67;;;;;8.15;84.95;101481.28;4908289;29;28710;-87
2023/04/05 07:06:14;;;;;;;;;43.50;37.50;;;;;8.29;85.20;101525.06;4927758;29;28380;-85
2023/04/05 07:08:51;;;;;;;;;44.00;36.25;;;;;8.21;85.64;101524.78;4895861;29;28253;-87
2023/04/05 07:11:16;;;;;;;;;38.67;34.67;;;;;7.95;87.08;101533.53;4893056;29;28707;-86
2023/04/05 07:13:42;;;;;;;;;39.00;33.33;;;;;7.88;86.20;101532.41;4891282;29;28357;-86
2023/04/05 07:23:40;;;;;;;;;34.50;30.25;;;;;8.23;85.41;101537.19;4928091;29;28505;-86
2023/04/05 07:30:12;;;;;;;;;38.75;34.50;;;;;8.38;84.70;101512.16;4867183;29;28569;-87
2023/04/05 07:32:38;;;;;;;;;33.00;27.00;;;;;8.59;84.71;101546.50;4836996;29;28582;-86
2023/04/05 07:35:31;;;;;;;;;41.33;36.33;;;;;8.84;83.49;101542.03;4835972;29;28048;-86
2023/04/05 07:42:26;;;;;;;;;;;;;;;;;;;;;
2023/04/05 07:45:32;;;;;;;;;;;;;;;;;;;;;
2023/04/05 07:47:50;;;;;;;;;40.00;33.50;;;;;8.93;82.66;101537.03;4868636;29;28461;-84
2023/04/05 07:50:57;;;;;;;;;;;;;;;;;;;;;
2023/04/05 07:53:42;;;;;;;;;42.75;38.75;;;;;9.46;81.12;101520.16;4865997;29;51889;-85
2023/04/05 08:03:41;;;;;;;;;;;;;;;;;;;;;
2023/04/05 08:10:08;;;;;;;;;40.67;37.00;;;;;10.38;74.49;101517.53;4691368;30;28199;-85
2023/04/05 08:13:07;;;;;;;;;48.00;39.33;;;;;10.36;73.41;101487.34;4683582;30;28579;-83
2023/04/05 08:16:08;;;;;;;;;;;;;;;;;;;;;
2023/04/05 08:19:43;;;;;;;;;;;;;;;;;;;;;
2023/04/05 08:22:58;;;;;;;;;43.33;35.00;;;;;10.75;70.50;101521.19;4636331;30;58491;-86
2023/04/05 08:26:31;;;;;;;;;;;;;;;;;;;;;
2023/04/05 08:44:18;;;;;;;;;41.67;39.00;;;;;11.47;68.24;101519.38;4644654;30;28095;-85
2023/04/05 08:54:33;;;;;;;;;38.00;32.33;;;;;11.89;65.55;101526.56;4643341;30;28840;-87
2023/04/05 08:57:17;;;;;;;;;;;;;;;;;;;;;
2023/04/05 09:00:49;;;;;;;;;31.67;28.67;;;;;11.67;57.17;101507.38;4570651;31;52739;-86
2023/04/05 09:03:58;;;;;;;;;;;;;;;;;;;;;
2023/04/05 09:19:49;;;;;;;;;31.67;24.00;;;;;11.75;56.53;101486.25;4629883;30;29052;-84
2023/04/05 09:37:39;;;;;;;;;;;;;;;;;;;;;
2023/04/05 09:40:19;;;;;;;;;;;;;;;;;;;;;
2023/04/05 09:43:02;;;;;;;;;25.33;21.67;;;;;12.30;53.22;101510.47;4771862;29;57398;-87
2023/04/05 09:46:01;;;;;;;;;29.67;27.33;;;;;12.11;51.70;101486.13;4744952;29;28602;-86
2023/04/05 09:49:32;;;;;;;;;;;;;;;;;;;;;
2023/04/05 09:53:32;;;;;;;;;;;;;;;;;;;;;
2023/04/05 10:00:08;;;;;;;;;;;;;;;;;;;;;
2023/04/05 10:03:35;;;;;;;;;26.33;22.33;;;;;12.58;50.83;101491.47;4714171;30;54208;-87
2023/04/05 10:13:24;;;;;;;;;;;;;;;;;;;;;
2023/04/05 10:16:30;;;;;;;;;32.67;29.00;;;;;12.51;47.13;101468.22;4629244;30;54863;-85
2023/04/05 10:19:09;;;;;;;;;28.33;24.67;;;;;12.45;47.25;101456.53;4731457;30;29207;-84
2023/04/05 10:21:45;;;;;;;;;35.67;32.67;;;;;12.55;47.58;101463.84;4782719;29;29818;-84
2023/04/05 10:24:52;;;;;;;;;32.33;29.67;;;;;12.74;47.88;101463.25;4784673;29;29084;-85
2023/04/05 10:27:43;;;;;;;;;21.00;19.00;;;;;12.74;45.80;101447.25;4778962;29;27921;-85
2023/04/05 10:30:16;;;;;;;;;26.00;22.67;;;;;12.97;46.36;101484.13;4790894;29;28048;-85
2023/04/05 10:33:25;;;;;;;;;28.00;22.00;;;;;12.86;46.85;101435.88;4791263;29;29912;-84
2023/04/05 10:36:54;;;;;;;;;19.33;17.67;;;;;13.11;45.37;101465.63;4782059;29;28039;-83
2023/04/05 10:42:47;;;;;;;;;23.33;19.67;;;;;12.95;46.69;101432.47;4775460;29;29138;-84
2023/04/05 10:45:21;;;;;;;;;23.33;18.33;;;;;13.09;46.14;101446.00;4782437;29;29724;-84
2023/04/05 10:48:28;;;;;;;;;23.67;20.67;;;;;13.20;45.77;101436.38;4793049;29;28666;-83
2023/04/05 10:50:58;;;;;;;;;25.33;25.33;;;;;13.24;46.34;101419.53;4793167;29;28005;-83
2023/04/05 10:53:39;;;;;;;;;24.67;18.33;;;;;13.55;46.09;101439.59;4797501;29;28439;-84
2023/04/05 10:56:31;;;;;;;;;25.33;22.33;;;;;13.61;45.07;101436.06;4811103;29;30084;-83
2023/04/05 10:59:01;;;;;;;;;20.67;19.33;;;;;13.42;45.21;101402.00;4797036;29;28718;-83
2023/04/05 11:01:27;;;;;;;;;19.33;18.00;;;;;13.42;44.19;101410.00;4811441;29;29058;-83
2023/04/05 11:04:10;;;;;;;;;22.00;20.00;;;;;13.72;44.88;101434.44;4802146;29;27904;-83
2023/04/05 11:07:14;;;;;;;;;19.33;19.33;;;;;13.86;44.50;101433.72;4799282;29;29781;-84
2023/04/05 11:10:00;;;;;;;;;23.67;20.33;;;;;13.75;42.43;101430.91;4795869;29;28012;-83
2023/04/05 11:12:44;;;;;;;;;20.00;17.00;;;;;13.82;44.48;101429.22;4825740;29;28787;-82
2023/04/05 11:15:33;;;;;;;;;21.67;17.33;;;;;13.82;43.65;101423.88;4849452;29;28072;-82
2023/04/05 11:18:10;;;;;;;;;23.67;20.00;;;;;13.88;43.65;101429.28;4823763;29;30252;-84
2023/04/05 11:21:04;;;;;;;;;18.67;18.33;;;;;13.83;39.54;101423.88;4889889;29;27920;-82
2023/04/05 11:23:30;;;;;;;;;17.00;12.67;;;;;13.60;41.71;101418.25;4886976;29;27952;-82
2023/04/05 11:26:05;;;;;;;;;21.00;20.67;;;;;13.77;40.40;101418.47;4857652;29;27940;-83
2023/04/05 11:28:44;;;;;;;;;21.33;18.33;;;;;13.72;42.19;101410.38;4868403;29;30180;-82
2023/04/05 11:31:25;;;;;;;;;23.33;22.00;;;;;13.90;41.04;101414.16;4884956;29;28452;-83
2023/04/05 11:34:22;;;;;;;;;24.00;18.00;;;;;14.00;41.79;101410.72;4887665;29;29781;-83
2023/04/05 11:36:50;;;;;;;;;14.00;14.00;;;;;13.92;41.86;101399.03;4880203;29;28012;-83
2023/04/05 11:39:37;;;;;;;;;18.33;17.33;;;;;14.10;41.09;101399.22;4903771;29;28347;-85
2023/04/05 11:42:08;;;;;;;;;19.33;15.00;;;;;13.91;38.56;101375.84;4876864;29;29045;-84
2023/04/05 11:44:47;;;;;;;;;22.33;19.00;;;;;14.20;40.34;101408.25;4888494;29;27835;-83
2023/04/05 11:47:16;;;;;;;;;22.00;20.00;;;;;14.08;40.98;101394.72;4906873;29;28633;-83
2023/04/05 11:49:50;;;;;;;;;21.00;19.00;;;;;14.13;41.68;101359.13;4909209;29;28336;-81
2023/04/05 11:52:22;;;;;;;;;20.67;19.67;;;;;14.30;41.32;101374.41;4892195;29;28906;-82
2023/04/05 11:54:48;;;;;;;;;27.67;26.00;;;;;14.51;41.09;101413.88;4892534;29;28666;-83
2023/04/05 12:00:36;;;;;;;;;24.33;19.67;;;;;14.35;40.42;101380.72;4902609;28;28751;-83
2023/04/05 12:03:11;;;;;;;;;27.00;24.67;;;;;14.27;41.02;101382.44;4893174;29;27950;-84
2023/04/05 12:05:53;;;;;;;;;26.00;23.33;;;;;14.43;39.59;101387.03;4893477;29;27852;-84
2023/04/05 12:08:19;;;;;;;;;32.33;30.00;;;;;14.17;41.07;101363.63;4891176;29;28633;-84
2023/04/05 12:11:16;;;;;;;;;21.33;21.33;;;;;14.22;39.93;101355.66;4895669;29;29603;-83
2023/04/05 12:14:00;;;;;;;;;;;;;;;;;;;;;
2023/04/05 12:16:30;;;;;;;;;26.00;21.67;;;;;14.12;40.67;101343.97;4898008;29;53792;-85
2023/04/05 12:18:59;;;;;;;;;16.00;14.00;;;;;14.35;40.45;101381.63;4892093;29;28530;-83
2023/04/05 12:21:29;;;;;;;;;25.33;24.67;;;;;14.28;40.93;101349.44;4893179;29;29881;-84
2023/04/05 12:24:13;;;;;;;;;;;;;;;;;;;;;
2023/04/05 12:33:36;;;;;;;;;24.33;22.33;;;;;14.74;41.18;101323.03;4908416;29;28756;-84
2023/04/05 12:36:48;;;;;;;;;20.33;20.33;;;;;14.97;40.94;101358.03;4887914;29;28626;-84
2023/04/05 12:39:16;;;;;;;;;22.67;22.67;;;;;14.91;40.82;101337.44;4800678;29;28020;-84
2023/04/05 12:42:30;;;;;;;;;;;;;;;;;;;;;
2023/04/05 12:45:24;;;;;;;;;;;;;;;;;;;;;
2023/04/05 12:51:41;;;;;;;;;24.00;22.33;;;;;15.12;39.42;101335.75;4786655;29;28685;-83
2023/04/05 12:54:41;;;;;;;;;;;;;;;;;;;;;
2023/04/05 12:57:50;;;;;;;;;24.33;21.67;;;;;14.84;39.32;101298.13;4805618;29;57248;-83
2023/04/05 13:00:26;;;;;;;;;22.67;21.67;;;;;14.94;38.11;101318.69;4816022;29;28509;-82
2023/04/05 13:03:23;;;;;;;;;24.67;22.00;;;;;14.88;38.55;101318.66;4824826;29;27881;-83
2023/04/05 13:05:49;;;;;;;;;22.33;19.00;;;;;14.62;38.88;101291.72;4801839;29;27922;-83
2023/04/05 13:08:21;;;;;;;;;24.33;19.67;;;;;14.70;39.30;101289.09;4799424;29;28480;-82
2023/04/05 13:11:21;;;;;;;;;22.33;22.33;;;;;14.84;39.43;101284.72;4886159;29;29979;-84
2023/04/05 13:13:47;;;;;;;;;23.00;21.67;;;;;14.85;39.79;101294.56;4881529;29;28582;-82
2023/04/05 13:16:15;;;;;;;;;24.33;19.33;;;;;15.07;39.06;101305.34;4885555;29;28465;-83
2023/04/05 13:19:10;;;;;;;;;21.00;18.67;;;;;14.96;39.28;101271.38;4900813;29;28265;-83
2023/04/05 13:22:07;;;;;;;;;22.67;21.67;;;;;15.24;38.62;101302.78;4887120;29;28881;-84
2023/04/05 13:24:38;;;;;;;;;19.33;18.33;;;;;15.00;38.97;101297.28;4875381;29;28676;-83
2023/04/05 13:27:43;;;;;;;;;25.67;20.33;;;;;15.04;38.59;101275.91;4891093;29;28022;-84
2023/04/05 13:33:04;;;;;;;;;24.33;21.67;;;;;15.11;38.58;101286.66;4887544;29;28516;-82
2023/04/05 13:35:46;;;;;;;;;;;;;;;;;;;;;
2023/04/05 13:38:43;;;;;;;;;9.67;6.00;;;;;15.08;37.44;101253.59;4907250;29;28505;-84
2023/04/05 13:44:48;;;;;;;;;;;;;;;;;;;;;
2023/04/05 13:47:23;;;;;;;;;29.00;25.00;;;;;15.28;38.49;101257.22;4902828;29;54599;-84
2023/04/05 13:50:01;;;;;;;;;;;;;;;;;;;;;
2023/04/05 13:52:30;;;;;;;;;23.67;19.00;;;;;15.20;38.04;101226.84;4889495;29;58508;-83
2023/04/05 13:55:00;;;;;;;;;21.33;19.00;;;;;15.34;37.83;101234.91;4885236;29;29513;-82
2023/04/05 13:58:09;;;;;;;;;23.33;17.67;;;;;15.54;37.05;101243.88;4886896;29;28622;-83
2023/04/05 14:01:14;;;;;;;;;;;;;;;;;;;;;
2023/04/05 14:07:23;;;;;;;;;17.67;16.33;;;;;15.55;36.45;101226.00;4847505;29;28622;-82
2023/04/05 14:10:12;;;;;;;;;19.33;16.67;;;;;15.72;37.12;101226.03;4836960;29;28523;-82
2023/04/05 14:12:44;;;;;;;;;25.67;21.33;;;;;15.66;37.28;101202.78;4816472;29;28776;-84
2023/04/05 14:15:31;;;;;;;;;21.67;19.00;;;;;16.18;36.79;101210.84;4830815;29;28605;-83
2023/04/05 14:21:21;;;;;;;;;20.00;18.33;;;;;22.10;30.63;101188.41;4849308;29;27956;-82
2023/04/05 14:23:51;;;;;;;;;23.67;19.33;;;;;24.11;31.33;101165.06;4835976;29;28464;-83
2023/04/05 14:26:27;;;;;;;;;;;;;;;;;;;;;
2023/04/05 14:28:58;;;;;;;;;24.67;19.33;;;;;22.24;27.76;101151.94;4837690;29;56124;-83